sensor_id;sensor_type;location;lat;lon;timestamp;P1;durP1;ratioP1;P2;durP2;ratioP2
53781;SDS011;39692;53.114;7.060;2023-02-22T00:00:58;31.35;;;14.52;;
53781;SDS011;39692;53.114;7.060;2023-02-22T00:03:28;32.80;;;15.25;;
53781;SDS011;39692;53.114;7.060;2023-02-22T00:06:03;35.30;;;15.93;;
53781;SDS011;39692;53.114;7.060;2023-02-22T00:08:31;36.33;;;15.27;;
53781;SDS011;39692;53.114;7.060;2023-02-22T00:10:59;35.35;;;15.40;;
53781;SDS011;39692;53.114;7.060;2023-02-22T00:13:26;39.30;;;15.00;;
53781;SDS011;39692;53.114;7.060;2023-02-22T00:15:53;33.63;;;16.00;;
53781;SDS011;39692;53.114;7.060;2023-02-22T00:18:22;33.33;;;13.38;;
53781;SDS011;39692;53.114;7.060;2023-02-22T00:20:48;34.20;;;14.95;;
53781;SDS011;39692;53.114;7.060;2023-02-22T00:23:15;28.17;;;13.02;;
53781;SDS011;39692;53.114;7.060;2023-02-22T00:25:44;34.13;;;14.68;;
53781;SDS011;39692;53.114;7.060;2023-02-22T00:28:11;32.25;;;12.90;;
53781;SDS011;39692;53.114;7.060;2023-02-22T00:30:39;31.42;;;12.50;;
53781;SDS011;39692;53.114;7.060;2023-02-22T00:33:08;26.40;;;12.38;;
53781;SDS011;39692;53.114;7.060;2023-02-22T00:35:34;29.65;;;13.02;;
53781;SDS011;39692;53.114;7.060;2023-02-22T00:38:00;27.13;;;13.23;;
53781;SDS011;39692;53.114;7.060;2023-02-22T00:40:28;26.25;;;11.98;;
53781;SDS011;39692;53.114;7.060;2023-02-22T00:42:56;24.25;;;10.82;;
53781;SDS011;39692;53.114;7.060;2023-02-22T00:45:23;24.13;;;11.55;;
53781;SDS011;39692;53.114;7.060;2023-02-22T00:47:50;26.60;;;12.00;;
53781;SDS011;39692;53.114;7.060;2023-02-22T00:50:19;26.50;;;12.43;;
53781;SDS011;39692;53.114;7.060;2023-02-22T00:52:45;27.38;;;12.70;;
53781;SDS011;39692;53.114;7.060;2023-02-22T00:55:16;26.05;;;13.57;;
53781;SDS011;39692;53.114;7.060;2023-02-22T00:57:45;24.63;;;10.95;;
53781;SDS011;39692;53.114;7.060;2023-02-22T01:00:14;27.23;;;12.50;;
53781;SDS011;39692;53.114;7.060;2023-02-22T01:02:44;28.60;;;12.32;;
53781;SDS011;39692;53.114;7.060;2023-02-22T01:05:11;28.17;;;11.88;;
53781;SDS011;39692;53.114;7.060;2023-02-22T01:07:38;25.75;;;11.05;;
53781;SDS011;39692;53.114;7.060;2023-02-22T01:10:05;30.63;;;12.80;;
53781;SDS011;39692;53.114;7.060;2023-02-22T01:12:33;27.70;;;12.55;;
53781;SDS011;39692;53.114;7.060;2023-02-22T01:15:00;26.80;;;12.43;;
53781;SDS011;39692;53.114;7.060;2023-02-22T01:17:28;29.20;;;13.85;;
53781;SDS011;39692;53.114;7.060;2023-02-22T01:19:54;25.08;;;13.30;;
53781;SDS011;39692;53.114;7.060;2023-02-22T01:22:21;27.48;;;12.30;;
53781;SDS011;39692;53.114;7.060;2023-02-22T01:24:47;22.83;;;10.85;;
53781;SDS011;39692;53.114;7.060;2023-02-22T01:27:14;24.83;;;12.13;;
53781;SDS011;39692;53.114;7.060;2023-02-22T01:29:40;26.75;;;13.02;;
53781;SDS011;39692;53.114;7.060;2023-02-22T01:32:06;27.65;;;11.88;;
53781;SDS011;39692;53.114;7.060;2023-02-22T01:34:33;25.10;;;11.35;;
53781;SDS011;39692;53.114;7.060;2023-02-22T01:36:59;22.77;;;9.93;;
53781;SDS011;39692;53.114;7.060;2023-02-22T01:39:25;24.58;;;12.18;;
53781;SDS011;39692;53.114;7.060;2023-02-22T01:41:51;24.83;;;12.10;;
53781;SDS011;39692;53.114;7.060;2023-02-22T01:44:31;25.60;;;12.07;;
53781;SDS011;39692;53.114;7.060;2023-02-22T01:46:58;26.92;;;11.63;;
53781;SDS011;39692;53.114;7.060;2023-02-22T01:49:28;28.42;;;12.57;;
53781;SDS011;39692;53.114;7.060;2023-02-22T01:51:55;25.42;;;13.82;;
53781;SDS011;39692;53.114;7.060;2023-02-22T01:54:24;28.50;;;15.10;;
53781;SDS011;39692;53.114;7.060;2023-02-22T01:57:04;29.88;;;16.10;;
53781;SDS011;39692;53.114;7.060;2023-02-22T01:59:32;33.65;;;17.10;;
53781;SDS011;39692;53.114;7.060;2023-02-22T02:01:59;30.77;;;19.17;;
53781;SDS011;39692;53.114;7.060;2023-02-22T02:04:25;31.52;;;14.75;;
53781;SDS011;39692;53.114;7.060;2023-02-22T02:06:52;27.77;;;14.65;;
53781;SDS011;39692;53.114;7.060;2023-02-22T02:11:45;24.50;;;12.65;;
53781;SDS011;39692;53.114;7.060;2023-02-22T02:14:12;23.88;;;12.68;;
53781;SDS011;39692;53.114;7.060;2023-02-22T02:16:45;26.20;;;13.20;;
53781;SDS011;39692;53.114;7.060;2023-02-22T02:21:54;24.48;;;10.23;;
53781;SDS011;39692;53.114;7.060;2023-02-22T02:34:50;26.40;;;13.07;;
53781;SDS011;39692;53.114;7.060;2023-02-22T02:39:55;27.90;;;15.27;;
53781;SDS011;39692;53.114;7.060;2023-02-22T02:42:24;29.60;;;16.23;;
53781;SDS011;39692;53.114;7.060;2023-02-22T02:44:57;30.55;;;15.73;;
53781;SDS011;39692;53.114;7.060;2023-02-22T02:47:27;26.90;;;16.27;;
53781;SDS011;39692;53.114;7.060;2023-02-22T02:49:59;28.15;;;15.75;;
53781;SDS011;39692;53.114;7.060;2023-02-22T02:52:26;29.25;;;14.75;;
53781;SDS011;39692;53.114;7.060;2023-02-22T02:54:53;25.75;;;13.25;;
53781;SDS011;39692;53.114;7.060;2023-02-22T02:57:20;23.45;;;13.70;;
53781;SDS011;39692;53.114;7.060;2023-02-22T02:59:46;25.08;;;11.88;;
53781;SDS011;39692;53.114;7.060;2023-02-22T03:04:53;23.52;;;11.50;;
53781;SDS011;39692;53.114;7.060;2023-02-22T03:07:32;23.48;;;10.45;;
53781;SDS011;39692;53.114;7.060;2023-02-22T03:10:20;20.63;;;10.55;;
53781;SDS011;39692;53.114;7.060;2023-02-22T03:18:29;32.72;;;15.07;;
53781;SDS011;39692;53.114;7.060;2023-02-22T03:20:40;28.75;;;16.60;;
53781;SDS011;39692;53.114;7.060;2023-02-22T03:25:59;25.02;;;11.40;;
53781;SDS011;39692;53.114;7.060;2023-02-22T03:28:27;24.60;;;10.98;;
53781;SDS011;39692;53.114;7.060;2023-02-22T03:30:58;24.52;;;12.68;;
53781;SDS011;39692;53.114;7.060;2023-02-22T03:33:29;22.50;;;11.82;;
53781;SDS011;39692;53.114;7.060;2023-02-22T03:36:06;24.67;;;11.63;;
53781;SDS011;39692;53.114;7.060;2023-02-22T03:38:35;19.30;;;9.77;;
53781;SDS011;39692;53.114;7.060;2023-02-22T03:41:01;21.77;;;11.15;;
53781;SDS011;39692;53.114;7.060;2023-02-22T03:43:30;18.42;;;10.10;;
53781;SDS011;39692;53.114;7.060;2023-02-22T03:45:59;22.88;;;9.25;;
53781;SDS011;39692;53.114;7.060;2023-02-22T03:48:48;20.30;;;8.80;;
53781;SDS011;39692;53.114;7.060;2023-02-22T03:51:18;22.10;;;10.73;;
53781;SDS011;39692;53.114;7.060;2023-02-22T03:53:44;20.80;;;10.27;;
53781;SDS011;39692;53.114;7.060;2023-02-22T03:56:12;24.05;;;9.18;;
53781;SDS011;39692;53.114;7.060;2023-02-22T03:58:41;21.75;;;10.20;;
53781;SDS011;39692;53.114;7.060;2023-02-22T04:01:08;17.48;;;8.38;;
53781;SDS011;39692;53.114;7.060;2023-02-22T04:03:34;19.52;;;9.02;;
53781;SDS011;39692;53.114;7.060;2023-02-22T04:06:00;19.83;;;9.15;;
53781;SDS011;39692;53.114;7.060;2023-02-22T04:08:27;20.50;;;8.10;;
53781;SDS011;39692;53.114;7.060;2023-02-22T04:10:54;22.55;;;8.50;;
53781;SDS011;39692;53.114;7.060;2023-02-22T04:13:20;18.80;;;8.32;;
53781;SDS011;39692;53.114;7.060;2023-02-22T04:15:46;18.10;;;7.97;;
53781;SDS011;39692;53.114;7.060;2023-02-22T04:18:12;18.02;;;7.20;;
53781;SDS011;39692;53.114;7.060;2023-02-22T04:20:38;16.00;;;8.60;;
53781;SDS011;39692;53.114;7.060;2023-02-22T04:23:04;15.25;;;7.88;;
53781;SDS011;39692;53.114;7.060;2023-02-22T04:25:30;16.73;;;8.40;;
53781;SDS011;39692;53.114;7.060;2023-02-22T04:27:56;18.17;;;7.40;;
53781;SDS011;39692;53.114;7.060;2023-02-22T04:30:23;21.25;;;8.23;;
53781;SDS011;39692;53.114;7.060;2023-02-22T04:32:49;17.65;;;8.10;;
53781;SDS011;39692;53.114;7.060;2023-02-22T04:35:15;18.15;;;8.90;;
53781;SDS011;39692;53.114;7.060;2023-02-22T04:37:41;17.98;;;8.35;;
53781;SDS011;39692;53.114;7.060;2023-02-22T04:40:07;20.48;;;8.20;;
53781;SDS011;39692;53.114;7.060;2023-02-22T04:42:35;14.95;;;7.63;;
53781;SDS011;39692;53.114;7.060;2023-02-22T04:45:01;18.00;;;7.63;;
53781;SDS011;39692;53.114;7.060;2023-02-22T04:47:27;15.27;;;7.43;;
53781;SDS011;39692;53.114;7.060;2023-02-22T04:49:53;16.83;;;7.45;;
53781;SDS011;39692;53.114;7.060;2023-02-22T04:52:20;16.35;;;8.15;;
53781;SDS011;39692;53.114;7.060;2023-02-22T04:54:46;20.35;;;9.05;;
53781;SDS011;39692;53.114;7.060;2023-02-22T04:57:12;16.13;;;8.00;;
53781;SDS011;39692;53.114;7.060;2023-02-22T04:59:38;15.63;;;7.32;;
53781;SDS011;39692;53.114;7.060;2023-02-22T05:02:04;19.00;;;9.35;;
53781;SDS011;39692;53.114;7.060;2023-02-22T05:04:30;17.80;;;8.93;;
53781;SDS011;39692;53.114;7.060;2023-02-22T05:06:56;17.38;;;7.75;;
53781;SDS011;39692;53.114;7.060;2023-02-22T05:09:22;19.10;;;8.65;;
53781;SDS011;39692;53.114;7.060;2023-02-22T05:11:48;23.88;;;10.45;;
53781;SDS011;39692;53.114;7.060;2023-02-22T05:14:15;24.58;;;8.73;;
53781;SDS011;39692;53.114;7.060;2023-02-22T05:16:41;17.42;;;8.68;;
53781;SDS011;39692;53.114;7.060;2023-02-22T05:19:07;20.05;;;10.07;;
53781;SDS011;39692;53.114;7.060;2023-02-22T05:21:33;18.00;;;9.00;;
53781;SDS011;39692;53.114;7.060;2023-02-22T05:23:59;22.48;;;9.73;;
53781;SDS011;39692;53.114;7.060;2023-02-22T05:26:25;20.35;;;9.65;;
53781;SDS011;39692;53.114;7.060;2023-02-22T05:28:51;19.02;;;10.20;;
53781;SDS011;39692;53.114;7.060;2023-02-22T05:31:17;25.35;;;11.95;;
53781;SDS011;39692;53.114;7.060;2023-02-22T05:33:43;19.02;;;10.23;;
53781;SDS011;39692;53.114;7.060;2023-02-22T05:36:09;22.52;;;10.50;;
53781;SDS011;39692;53.114;7.060;2023-02-22T05:38:35;27.67;;;10.50;;
53781;SDS011;39692;53.114;7.060;2023-02-22T05:41:07;19.83;;;9.90;;
53781;SDS011;39692;53.114;7.060;2023-02-22T05:43:34;21.95;;;10.93;;
53781;SDS011;39692;53.114;7.060;2023-02-22T05:46:00;21.55;;;10.30;;
53781;SDS011;39692;53.114;7.060;2023-02-22T05:48:26;23.52;;;11.07;;
53781;SDS011;39692;53.114;7.060;2023-02-22T05:50:52;19.65;;;9.90;;
53781;SDS011;39692;53.114;7.060;2023-02-22T05:53:18;19.73;;;9.50;;
53781;SDS011;39692;53.114;7.060;2023-02-22T05:55:44;20.73;;;10.63;;
53781;SDS011;39692;53.114;7.060;2023-02-22T05:58:10;22.90;;;10.27;;
53781;SDS011;39692;53.114;7.060;2023-02-22T06:00:36;26.13;;;11.10;;
53781;SDS011;39692;53.114;7.060;2023-02-22T06:03:03;20.73;;;10.25;;
53781;SDS011;39692;53.114;7.060;2023-02-22T06:05:30;24.05;;;10.70;;
53781;SDS011;39692;53.114;7.060;2023-02-22T06:07:56;27.95;;;13.07;;
53781;SDS011;39692;53.114;7.060;2023-02-22T06:10:23;22.88;;;10.70;;
53781;SDS011;39692;53.114;7.060;2023-02-22T06:12:49;20.92;;;11.20;;
53781;SDS011;39692;53.114;7.060;2023-02-22T06:15:16;26.38;;;11.30;;
53781;SDS011;39692;53.114;7.060;2023-02-22T06:17:43;23.25;;;10.50;;
53781;SDS011;39692;53.114;7.060;2023-02-22T06:20:10;26.92;;;10.40;;
53781;SDS011;39692;53.114;7.060;2023-02-22T06:22:36;23.80;;;10.55;;
53781;SDS011;39692;53.114;7.060;2023-02-22T06:25:05;23.55;;;11.45;;
53781;SDS011;39692;53.114;7.060;2023-02-22T06:27:31;24.10;;;11.15;;
53781;SDS011;39692;53.114;7.060;2023-02-22T06:29:57;20.65;;;11.35;;
53781;SDS011;39692;53.114;7.060;2023-02-22T06:32:24;22.30;;;11.65;;
53781;SDS011;39692;53.114;7.060;2023-02-22T06:34:50;25.17;;;11.57;;
53781;SDS011;39692;53.114;7.060;2023-02-22T06:37:16;24.35;;;12.07;;
53781;SDS011;39692;53.114;7.060;2023-02-22T06:39:42;25.23;;;11.65;;
53781;SDS011;39692;53.114;7.060;2023-02-22T06:42:08;22.98;;;11.52;;
53781;SDS011;39692;53.114;7.060;2023-02-22T06:44:34;26.00;;;12.57;;
53781;SDS011;39692;53.114;7.060;2023-02-22T06:47:00;33.38;;;12.88;;
53781;SDS011;39692;53.114;7.060;2023-02-22T06:49:26;26.42;;;13.07;;
53781;SDS011;39692;53.114;7.060;2023-02-22T06:51:53;28.05;;;12.95;;
53781;SDS011;39692;53.114;7.060;2023-02-22T06:54:19;25.17;;;11.80;;
53781;SDS011;39692;53.114;7.060;2023-02-22T06:56:46;28.02;;;12.18;;
53781;SDS011;39692;53.114;7.060;2023-02-22T06:59:13;28.77;;;12.18;;
53781;SDS011;39692;53.114;7.060;2023-02-22T07:01:39;33.90;;;13.73;;
53781;SDS011;39692;53.114;7.060;2023-02-22T07:04:06;34.42;;;12.48;;
53781;SDS011;39692;53.114;7.060;2023-02-22T07:06:32;26.20;;;12.48;;
53781;SDS011;39692;53.114;7.060;2023-02-22T07:08:58;32.97;;;13.85;;
53781;SDS011;39692;53.114;7.060;2023-02-22T07:11:25;25.33;;;11.75;;
53781;SDS011;39692;53.114;7.060;2023-02-22T07:13:51;28.35;;;14.10;;
53781;SDS011;39692;53.114;7.060;2023-02-22T07:16:19;32.05;;;15.00;;
53781;SDS011;39692;53.114;7.060;2023-02-22T07:18:45;34.40;;;14.70;;
53781;SDS011;39692;53.114;7.060;2023-02-22T07:21:11;37.10;;;15.55;;
53781;SDS011;39692;53.114;7.060;2023-02-22T07:23:37;35.63;;;16.13;;
53781;SDS011;39692;53.114;7.060;2023-02-22T07:26:03;37.72;;;18.45;;
53781;SDS011;39692;53.114;7.060;2023-02-22T07:28:30;44.40;;;18.38;;
53781;SDS011;39692;53.114;7.060;2023-02-22T07:30:56;41.30;;;18.08;;
53781;SDS011;39692;53.114;7.060;2023-02-22T07:33:22;35.15;;;16.63;;
53781;SDS011;39692;53.114;7.060;2023-02-22T07:35:49;46.38;;;19.95;;
53781;SDS011;39692;53.114;7.060;2023-02-22T07:38:16;42.17;;;18.60;;
53781;SDS011;39692;53.114;7.060;2023-02-22T07:40:43;41.00;;;19.05;;
53781;SDS011;39692;53.114;7.060;2023-02-22T07:45:38;44.85;;;19.35;;
53781;SDS011;39692;53.114;7.060;2023-02-22T07:48:05;42.03;;;18.02;;
53781;SDS011;39692;53.114;7.060;2023-02-22T07:50:31;37.90;;;18.25;;
53781;SDS011;39692;53.114;7.060;2023-02-22T07:53:00;42.03;;;18.67;;
53781;SDS011;39692;53.114;7.060;2023-02-22T07:55:28;40.00;;;19.85;;
53781;SDS011;39692;53.114;7.060;2023-02-22T07:57:55;46.90;;;18.42;;
53781;SDS011;39692;53.114;7.060;2023-02-22T08:00:23;37.85;;;18.73;;
53781;SDS011;39692;53.114;7.060;2023-02-22T08:02:49;42.35;;;18.13;;
53781;SDS011;39692;53.114;7.060;2023-02-22T08:05:16;41.88;;;20.13;;
53781;SDS011;39692;53.114;7.060;2023-02-22T08:07:42;41.65;;;18.67;;
53781;SDS011;39692;53.114;7.060;2023-02-22T08:10:08;39.35;;;16.05;;
53781;SDS011;39692;53.114;7.060;2023-02-22T08:12:35;42.13;;;20.55;;
53781;SDS011;39692;53.114;7.060;2023-02-22T08:15:02;40.30;;;20.92;;
53781;SDS011;39692;53.114;7.060;2023-02-22T08:17:28;41.92;;;20.48;;
53781;SDS011;39692;53.114;7.060;2023-02-22T08:19:54;41.05;;;18.70;;
53781;SDS011;39692;53.114;7.060;2023-02-22T08:22:21;41.53;;;19.35;;
53781;SDS011;39692;53.114;7.060;2023-02-22T08:24:47;37.05;;;18.67;;
53781;SDS011;39692;53.114;7.060;2023-02-22T08:27:21;33.53;;;17.05;;
53781;SDS011;39692;53.114;7.060;2023-02-22T08:29:47;32.38;;;16.83;;
53781;SDS011;39692;53.114;7.060;2023-02-22T08:32:13;37.58;;;18.00;;
53781;SDS011;39692;53.114;7.060;2023-02-22T08:34:41;32.55;;;16.92;;
53781;SDS011;39692;53.114;7.060;2023-02-22T08:37:07;39.40;;;17.45;;
53781;SDS011;39692;53.114;7.060;2023-02-22T08:39:33;32.45;;;15.55;;
53781;SDS011;39692;53.114;7.060;2023-02-22T08:41:58;34.13;;;16.95;;
53781;SDS011;39692;53.114;7.060;2023-02-22T08:44:24;33.55;;;16.08;;
53781;SDS011;39692;53.114;7.060;2023-02-22T08:46:50;33.90;;;16.67;;
53781;SDS011;39692;53.114;7.060;2023-02-22T08:49:16;31.75;;;14.82;;
53781;SDS011;39692;53.114;7.060;2023-02-22T08:51:42;32.83;;;15.55;;
53781;SDS011;39692;53.114;7.060;2023-02-22T08:54:07;34.47;;;15.75;;
53781;SDS011;39692;53.114;7.060;2023-02-22T08:56:33;36.20;;;17.40;;
53781;SDS011;39692;53.114;7.060;2023-02-22T08:58:59;31.55;;;15.48;;
53781;SDS011;39692;53.114;7.060;2023-02-22T09:01:24;29.40;;;15.75;;
53781;SDS011;39692;53.114;7.060;2023-02-22T09:03:51;31.85;;;14.20;;
53781;SDS011;39692;53.114;7.060;2023-02-22T09:06:17;28.70;;;13.98;;
53781;SDS011;39692;53.114;7.060;2023-02-22T09:08:43;31.80;;;15.32;;
53781;SDS011;39692;53.114;7.060;2023-02-22T09:11:09;27.73;;;13.63;;
53781;SDS011;39692;53.114;7.060;2023-02-22T09:13:34;32.83;;;13.65;;
53781;SDS011;39692;53.114;7.060;2023-02-22T09:16:00;27.33;;;14.75;;
53781;SDS011;39692;53.114;7.060;2023-02-22T09:18:27;28.08;;;14.07;;
53781;SDS011;39692;53.114;7.060;2023-02-22T09:20:53;27.25;;;14.32;;
53781;SDS011;39692;53.114;7.060;2023-02-22T09:23:19;26.67;;;13.65;;
53781;SDS011;39692;53.114;7.060;2023-02-22T09:25:46;27.40;;;14.48;;
53781;SDS011;39692;53.114;7.060;2023-02-22T09:28:12;27.45;;;12.90;;
53781;SDS011;39692;53.114;7.060;2023-02-22T09:30:38;26.67;;;13.98;;
53781;SDS011;39692;53.114;7.060;2023-02-22T09:33:05;29.52;;;13.88;;
53781;SDS011;39692;53.114;7.060;2023-02-22T09:35:35;27.38;;;14.05;;
53781;SDS011;39692;53.114;7.060;2023-02-22T09:38:02;28.63;;;14.02;;
53781;SDS011;39692;53.114;7.060;2023-02-22T09:40:30;26.30;;;13.45;;
53781;SDS011;39692;53.114;7.060;2023-02-22T09:45:44;31.13;;;14.90;;
53781;SDS011;39692;53.114;7.060;2023-02-22T09:48:27;31.73;;;14.38;;
53781;SDS011;39692;53.114;7.060;2023-02-22T09:50:57;26.95;;;14.68;;
53781;SDS011;39692;53.114;7.060;2023-02-22T09:53:36;28.88;;;12.77;;
53781;SDS011;39692;53.114;7.060;2023-02-22T09:56:11;27.60;;;13.27;;
53781;SDS011;39692;53.114;7.060;2023-02-22T09:58:44;29.13;;;12.55;;
53781;SDS011;39692;53.114;7.060;2023-02-22T10:09:42;28.02;;;13.30;;
53781;SDS011;39692;53.114;7.060;2023-02-22T10:12:28;30.70;;;14.00;;
53781;SDS011;39692;53.114;7.060;2023-02-22T10:17:57;32.40;;;15.27;;
53781;SDS011;39692;53.114;7.060;2023-02-22T10:20:56;30.53;;;14.07;;
53781;SDS011;39692;53.114;7.060;2023-02-22T10:23:35;32.20;;;15.07;;
53781;SDS011;39692;53.114;7.060;2023-02-22T10:26:14;33.97;;;14.23;;
53781;SDS011;39692;53.114;7.060;2023-02-22T10:28:46;34.08;;;16.35;;
53781;SDS011;39692;53.114;7.060;2023-02-22T10:31:24;32.75;;;16.17;;
53781;SDS011;39692;53.114;7.060;2023-02-22T10:33:56;35.47;;;15.32;;
53781;SDS011;39692;53.114;7.060;2023-02-22T10:36:31;35.35;;;15.23;;
53781;SDS011;39692;53.114;7.060;2023-02-22T10:39:10;36.35;;;16.40;;
53781;SDS011;39692;53.114;7.060;2023-02-22T10:41:40;36.55;;;16.55;;
53781;SDS011;39692;53.114;7.060;2023-02-22T10:44:12;37.90;;;17.90;;
53781;SDS011;39692;53.114;7.060;2023-02-22T10:46:38;37.95;;;16.52;;
53781;SDS011;39692;53.114;7.060;2023-02-22T10:49:06;45.95;;;19.65;;
53781;SDS011;39692;53.114;7.060;2023-02-22T10:51:32;37.50;;;17.55;;
53781;SDS011;39692;53.114;7.060;2023-02-22T10:56:47;44.15;;;18.52;;
53781;SDS011;39692;53.114;7.060;2023-02-22T10:59:28;40.63;;;17.90;;
53781;SDS011;39692;53.114;7.060;2023-02-22T11:02:23;39.05;;;18.98;;
53781;SDS011;39692;53.114;7.060;2023-02-22T11:04:55;41.10;;;19.17;;
53781;SDS011;39692;53.114;7.060;2023-02-22T11:07:25;39.53;;;16.25;;
53781;SDS011;39692;53.114;7.060;2023-02-22T11:09:57;41.80;;;19.65;;
53781;SDS011;39692;53.114;7.060;2023-02-22T11:17:54;45.00;;;19.25;;
53781;SDS011;39692;53.114;7.060;2023-02-22T11:20:30;41.00;;;17.50;;
53781;SDS011;39692;53.114;7.060;2023-02-22T11:23:03;42.33;;;18.77;;
53781;SDS011;39692;53.114;7.060;2023-02-22T11:25:36;43.95;;;20.17;;
53781;SDS011;39692;53.114;7.060;2023-02-22T11:28:08;41.08;;;18.02;;
53781;SDS011;39692;53.114;7.060;2023-02-22T11:30:42;34.65;;;16.85;;
53781;SDS011;39692;53.114;7.060;2023-02-22T11:38:28;40.10;;;19.30;;
53781;SDS011;39692;53.114;7.060;2023-02-22T11:41:10;41.05;;;20.17;;
53781;SDS011;39692;53.114;7.060;2023-02-22T11:43:45;36.50;;;18.92;;
53781;SDS011;39692;53.114;7.060;2023-02-22T11:51:25;41.85;;;20.05;;
53781;SDS011;39692;53.114;7.060;2023-02-22T12:05:19;43.90;;;19.50;;
53781;SDS011;39692;53.114;7.060;2023-02-22T12:13:46;43.85;;;18.77;;
53781;SDS011;39692;53.114;7.060;2023-02-22T12:21:33;44.05;;;21.33;;
53781;SDS011;39692;53.114;7.060;2023-02-22T12:24:09;46.15;;;21.38;;
53781;SDS011;39692;53.114;7.060;2023-02-22T12:26:41;44.17;;;20.77;;
53781;SDS011;39692;53.114;7.060;2023-02-22T12:32:26;46.83;;;20.95;;
53781;SDS011;39692;53.114;7.060;2023-02-22T12:35:02;46.17;;;20.48;;
53781;SDS011;39692;53.114;7.060;2023-02-22T12:37:42;44.00;;;19.70;;
53781;SDS011;39692;53.114;7.060;2023-02-22T12:48:47;44.05;;;21.42;;
53781;SDS011;39692;53.114;7.060;2023-02-22T12:51:22;42.03;;;21.20;;
53781;SDS011;39692;53.114;7.060;2023-02-22T12:54:00;44.17;;;19.92;;
53781;SDS011;39692;53.114;7.060;2023-02-22T12:56:58;40.38;;;19.17;;
53781;SDS011;39692;53.114;7.060;2023-02-22T12:59:32;48.10;;;21.13;;
53781;SDS011;39692;53.114;7.060;2023-02-22T13:02:17;45.38;;;21.50;;
53781;SDS011;39692;53.114;7.060;2023-02-22T13:04:47;49.47;;;21.83;;
53781;SDS011;39692;53.114;7.060;2023-02-22T13:07:17;47.75;;;21.88;;
53781;SDS011;39692;53.114;7.060;2023-02-22T13:12:54;49.40;;;23.17;;
53781;SDS011;39692;53.114;7.060;2023-02-22T13:21:27;45.08;;;20.42;;
53781;SDS011;39692;53.114;7.060;2023-02-22T13:23:57;46.65;;;21.30;;
53781;SDS011;39692;53.114;7.060;2023-02-22T13:26:41;47.08;;;21.08;;
53781;SDS011;39692;53.114;7.060;2023-02-22T13:29:23;44.40;;;20.52;;
53781;SDS011;39692;53.114;7.060;2023-02-22T13:53:55;42.40;;;19.65;;
53781;SDS011;39692;53.114;7.060;2023-02-22T13:56:25;39.05;;;18.17;;
53781;SDS011;39692;53.114;7.060;2023-02-22T13:58:56;38.70;;;19.17;;
53781;SDS011;39692;53.114;7.060;2023-02-22T14:04:21;40.80;;;19.58;;
53781;SDS011;39692;53.114;7.060;2023-02-22T14:06:50;41.90;;;20.63;;
53781;SDS011;39692;53.114;7.060;2023-02-22T14:12:26;44.92;;;21.38;;
53781;SDS011;39692;53.114;7.060;2023-02-22T14:20:42;42.92;;;21.40;;
53781;SDS011;39692;53.114;7.060;2023-02-22T14:23:27;42.33;;;19.77;;
53781;SDS011;39692;53.114;7.060;2023-02-22T14:26:09;39.03;;;23.00;;
53781;SDS011;39692;53.114;7.060;2023-02-22T14:31:33;37.38;;;19.40;;
53781;SDS011;39692;53.114;7.060;2023-02-22T14:34:30;39.58;;;21.02;;
53781;SDS011;39692;53.114;7.060;2023-02-22T14:37:16;43.80;;;20.60;;
53781;SDS011;39692;53.114;7.060;2023-02-22T14:39:47;36.58;;;18.95;;
53781;SDS011;39692;53.114;7.060;2023-02-22T14:42:20;38.65;;;20.02;;
53781;SDS011;39692;53.114;7.060;2023-02-22T14:47:50;36.45;;;20.67;;
53781;SDS011;39692;53.114;7.060;2023-02-22T14:50:32;36.08;;;19.80;;
53781;SDS011;39692;53.114;7.060;2023-02-22T14:55:40;34.53;;;18.52;;
53781;SDS011;39692;53.114;7.060;2023-02-22T14:58:11;42.30;;;20.15;;
53781;SDS011;39692;53.114;7.060;2023-02-22T15:00:46;40.90;;;20.45;;
53781;SDS011;39692;53.114;7.060;2023-02-22T15:03:32;38.33;;;19.90;;
53781;SDS011;39692;53.114;7.060;2023-02-22T15:08:31;41.65;;;20.40;;
53781;SDS011;39692;53.114;7.060;2023-02-22T15:10:58;39.63;;;20.55;;
53781;SDS011;39692;53.114;7.060;2023-02-22T15:13:27;36.47;;;19.35;;
53781;SDS011;39692;53.114;7.060;2023-02-22T15:16:01;41.33;;;21.13;;
53781;SDS011;39692;53.114;7.060;2023-02-22T15:18:41;41.85;;;20.77;;
53781;SDS011;39692;53.114;7.060;2023-02-22T15:21:13;42.03;;;20.80;;
53781;SDS011;39692;53.114;7.060;2023-02-22T15:23:44;33.50;;;18.35;;
53781;SDS011;39692;53.114;7.060;2023-02-22T15:26:42;36.50;;;18.65;;
53781;SDS011;39692;53.114;7.060;2023-02-22T15:31:42;40.38;;;19.20;;
53781;SDS011;39692;53.114;7.060;2023-02-22T15:36:39;34.65;;;17.02;;
53781;SDS011;39692;53.114;7.060;2023-02-22T15:39:17;43.00;;;21.35;;
53781;SDS011;39692;53.114;7.060;2023-02-22T15:41:44;39.08;;;18.70;;
53781;SDS011;39692;53.114;7.060;2023-02-22T15:44:10;40.63;;;19.42;;
53781;SDS011;39692;53.114;7.060;2023-02-22T15:46:36;37.13;;;19.17;;
53781;SDS011;39692;53.114;7.060;2023-02-22T15:49:04;43.88;;;21.05;;
53781;SDS011;39692;53.114;7.060;2023-02-22T15:51:39;46.50;;;21.00;;
53781;SDS011;39692;53.114;7.060;2023-02-22T15:54:06;39.45;;;19.35;;
53781;SDS011;39692;53.114;7.060;2023-02-22T15:56:39;41.92;;;19.10;;
53781;SDS011;39692;53.114;7.060;2023-02-22T15:59:19;41.72;;;20.67;;
53781;SDS011;39692;53.114;7.060;2023-02-22T16:01:48;42.20;;;20.83;;
53781;SDS011;39692;53.114;7.060;2023-02-22T16:04:16;41.10;;;19.98;;
53781;SDS011;39692;53.114;7.060;2023-02-22T16:06:47;38.47;;;19.38;;
53781;SDS011;39692;53.114;7.060;2023-02-22T16:09:17;40.55;;;21.10;;
53781;SDS011;39692;53.114;7.060;2023-02-22T16:11:50;40.70;;;20.33;;
53781;SDS011;39692;53.114;7.060;2023-02-22T16:19:53;41.13;;;19.83;;
53781;SDS011;39692;53.114;7.060;2023-02-22T16:22:29;37.85;;;19.02;;
53781;SDS011;39692;53.114;7.060;2023-02-22T16:27:41;38.35;;;20.60;;
53781;SDS011;39692;53.114;7.060;2023-02-22T16:33:04;39.90;;;19.73;;
53781;SDS011;39692;53.114;7.060;2023-02-22T16:35:37;39.35;;;19.45;;
53781;SDS011;39692;53.114;7.060;2023-02-22T16:38:04;43.88;;;19.33;;
53781;SDS011;39692;53.114;7.060;2023-02-22T16:40:36;38.15;;;18.80;;
53781;SDS011;39692;53.114;7.060;2023-02-22T16:43:05;44.20;;;20.63;;
53781;SDS011;39692;53.114;7.060;2023-02-22T16:45:32;39.45;;;20.08;;
53781;SDS011;39692;53.114;7.060;2023-02-22T16:48:00;39.30;;;20.95;;
53781;SDS011;39692;53.114;7.060;2023-02-22T16:50:28;42.78;;;19.63;;
53781;SDS011;39692;53.114;7.060;2023-02-22T16:52:54;39.80;;;21.40;;
53781;SDS011;39692;53.114;7.060;2023-02-22T16:55:22;39.35;;;19.42;;
53781;SDS011;39692;53.114;7.060;2023-02-22T16:57:49;36.13;;;18.63;;
53781;SDS011;39692;53.114;7.060;2023-02-22T17:00:19;41.78;;;19.23;;
53781;SDS011;39692;53.114;7.060;2023-02-22T17:02:55;43.17;;;20.10;;
53781;SDS011;39692;53.114;7.060;2023-02-22T17:05:21;36.53;;;18.10;;
53781;SDS011;39692;53.114;7.060;2023-02-22T17:07:46;40.58;;;18.27;;
53781;SDS011;39692;53.114;7.060;2023-02-22T17:10:15;34.22;;;17.60;;
53781;SDS011;39692;53.114;7.060;2023-02-22T17:12:45;39.38;;;21.02;;
53781;SDS011;39692;53.114;7.060;2023-02-22T17:15:31;37.55;;;17.65;;
53781;SDS011;39692;53.114;7.060;2023-02-22T17:18:02;36.10;;;18.63;;
53781;SDS011;39692;53.114;7.060;2023-02-22T17:20:35;31.65;;;16.65;;
53781;SDS011;39692;53.114;7.060;2023-02-22T17:23:02;33.17;;;16.73;;
53781;SDS011;39692;53.114;7.060;2023-02-22T17:25:34;38.33;;;19.70;;